sensor_id;sensor_type;location;lat;lon;timestamp;temperature;humidity
75281;HTU21D;63874;47.230;39.620;2023-06-14T00:01:04;18.88;81.01
75281;HTU21D;63874;47.230;39.620;2023-06-14T00:03:31;18.88;81.02
75281;HTU21D;63874;47.230;39.620;2023-06-14T00:06:00;18.83;81.05
75281;HTU21D;63874;47.230;39.620;2023-06-14T00:08:26;18.82;81.23
75281;HTU21D;63874;47.230;39.620;2023-06-14T00:10:51;18.81;81.29
75281;HTU21D;63874;47.230;39.620;2023-06-14T00:13:17;18.78;81.40
75281;HTU21D;63874;47.230;39.620;2023-06-14T00:15:43;18.76;81.38
75281;HTU21D;63874;47.230;39.620;2023-06-14T00:18:09;18.71;81.35
75281;HTU21D;63874;47.230;39.620;2023-06-14T00:20:37;18.70;81.50
75281;HTU21D;63874;47.230;39.620;2023-06-14T00:23:03;18.68;81.53
75281;HTU21D;63874;47.230;39.620;2023-06-14T00:25:29;18.67;81.57
75281;HTU21D;63874;47.230;39.620;2023-06-14T00:27:56;18.64;81.72
75281;HTU21D;63874;47.230;39.620;2023-06-14T00:30:25;18.63;81.71
75281;HTU21D;63874;47.230;39.620;2023-06-14T00:32:56;18.59;81.89
75281;HTU21D;63874;47.230;39.620;2023-06-14T00:35:21;18.57;81.91
75281;HTU21D;63874;47.230;39.620;2023-06-14T00:37:47;18.55;81.87
75281;HTU21D;63874;47.230;39.620;2023-06-14T00:40:13;18.53;81.88
75281;HTU21D;63874;47.230;39.620;2023-06-14T00:42:39;18.52;81.99
75281;HTU21D;63874;47.230;39.620;2023-06-14T00:45:05;18.51;81.95
75281;HTU21D;63874;47.230;39.620;2023-06-14T00:47:31;18.51;81.96
75281;HTU21D;63874;47.230;39.620;2023-06-14T00:49:58;18.49;82.06
75281;HTU21D;63874;47.230;39.620;2023-06-14T00:52:25;18.50;82.10
75281;HTU21D;63874;47.230;39.620;2023-06-14T00:54:54;18.48;82.08
75281;HTU21D;63874;47.230;39.620;2023-06-14T00:57:20;18.49;82.10
75281;HTU21D;63874;47.230;39.620;2023-06-14T00:59:48;18.48;82.20
75281;HTU21D;63874;47.230;39.620;2023-06-14T01:02:15;18.47;82.21
75281;HTU21D;63874;47.230;39.620;2023-06-14T01:04:44;18.44;82.23
75281;HTU21D;63874;47.230;39.620;2023-06-14T01:07:34;18.44;82.28
75281;HTU21D;63874;47.230;39.620;2023-06-14T01:15:50;18.38;82.20
75281;HTU21D;63874;47.230;39.620;2023-06-14T01:18:17;18.36;82.23
75281;HTU21D;63874;47.230;39.620;2023-06-14T01:20:44;18.36;82.29
75281;HTU21D;63874;47.230;39.620;2023-06-14T01:23:11;18.36;82.30
75281;HTU21D;63874;47.230;39.620;2023-06-14T01:25:42;18.35;82.30
75281;HTU21D;63874;47.230;39.620;2023-06-14T01:28:11;18.32;82.25
75281;HTU21D;63874;47.230;39.620;2023-06-14T01:30:44;18.32;82.21
75281;HTU21D;63874;47.230;39.620;2023-06-14T01:33:33;18.33;82.22
75281;HTU21D;63874;47.230;39.620;2023-06-14T01:36:00;18.30;82.13
75281;HTU21D;63874;47.230;39.620;2023-06-14T01:38:30;18.32;82.05
75281;HTU21D;63874;47.230;39.620;2023-06-14T01:40:58;18.32;82.01
75281;HTU21D;63874;47.230;39.620;2023-06-14T01:43:26;18.34;81.97
75281;HTU21D;63874;47.230;39.620;2023-06-14T01:45:57;18.34;81.96
75281;HTU21D;63874;47.230;39.620;2023-06-14T01:48:23;18.33;81.93
75281;HTU21D;63874;47.230;39.620;2023-06-14T01:50:49;18.33;81.84
75281;HTU21D;63874;47.230;39.620;2023-06-14T01:53:16;18.32;81.82
75281;HTU21D;63874;47.230;39.620;2023-06-14T01:55:42;18.30;81.75
75281;HTU21D;63874;47.230;39.620;2023-06-14T01:58:10;18.32;81.73
75281;HTU21D;63874;47.230;39.620;2023-06-14T02:00:36;18.29;81.68
75281;HTU21D;63874;47.230;39.620;2023-06-14T02:03:02;18.30;81.70
75281;HTU21D;63874;47.230;39.620;2023-06-14T02:05:30;18.33;81.70
75281;HTU21D;63874;47.230;39.620;2023-06-14T02:07:56;18.33;81.59
75281;HTU21D;63874;47.230;39.620;2023-06-14T02:10:22;18.35;81.53
75281;HTU21D;63874;47.230;39.620;2023-06-14T02:12:48;18.36;81.51
75281;HTU21D;63874;47.230;39.620;2023-06-14T02:15:14;18.36;81.46
75281;HTU21D;63874;47.230;39.620;2023-06-14T02:17:44;18.36;81.42
75281;HTU21D;63874;47.230;39.620;2023-06-14T02:20:10;18.35;81.42
75281;HTU21D;63874;47.230;39.620;2023-06-14T02:22:36;18.35;81.36
75281;HTU21D;63874;47.230;39.620;2023-06-14T02:25:02;18.38;81.29
75281;HTU21D;63874;47.230;39.620;2023-06-14T02:27:28;18.39;81.20
75281;HTU21D;63874;47.230;39.620;2023-06-14T02:29:54;18.39;81.08
75281;HTU21D;63874;47.230;39.620;2023-06-14T02:32:20;18.40;80.99
75281;HTU21D;63874;47.230;39.620;2023-06-14T02:34:46;18.40;80.90
75281;HTU21D;63874;47.230;39.620;2023-06-14T02:37:16;18.40;80.87
75281;HTU21D;63874;47.230;39.620;2023-06-14T02:39:45;18.39;80.88
75281;HTU21D;63874;47.230;39.620;2023-06-14T02:42:11;18.39;80.82
75281;HTU21D;63874;47.230;39.620;2023-06-14T02:44:37;18.39;80.78
75281;HTU21D;63874;47.230;39.620;2023-06-14T02:47:04;18.40;80.71
75281;HTU21D;63874;47.230;39.620;2023-06-14T02:49:33;18.40;80.61
75281;HTU21D;63874;47.230;39.620;2023-06-14T02:51:59;18.41;80.54
75281;HTU21D;63874;47.230;39.620;2023-06-14T02:54:25;18.41;80.56
75281;HTU21D;63874;47.230;39.620;2023-06-14T02:56:51;18.43;80.46
75281;HTU21D;63874;47.230;39.620;2023-06-14T02:59:17;18.44;80.32
75281;HTU21D;63874;47.230;39.620;2023-06-14T03:01:43;18.49;80.16
75281;HTU21D;63874;47.230;39.620;2023-06-14T03:04:13;18.50;80.05
75281;HTU21D;63874;47.230;39.620;2023-06-14T03:06:41;18.53;79.86
75281;HTU21D;63874;47.230;39.620;2023-06-14T03:09:10;18.56;79.83
75281;HTU21D;63874;47.230;39.620;2023-06-14T03:11:38;18.59;79.59
75281;HTU21D;63874;47.230;39.620;2023-06-14T03:14:05;18.62;79.51
75281;HTU21D;63874;47.230;39.620;2023-06-14T03:16:32;18.65;79.38
75281;HTU21D;63874;47.230;39.620;2023-06-14T03:18:59;18.66;79.33
75281;HTU21D;63874;47.230;39.620;2023-06-14T03:21:29;18.67;79.27
75281;HTU21D;63874;47.230;39.620;2023-06-14T03:23:58;18.68;79.21
75281;HTU21D;63874;47.230;39.620;2023-06-14T03:26:24;18.67;79.19
75281;HTU21D;63874;47.230;39.620;2023-06-14T03:28:53;18.70;79.14
75281;HTU21D;63874;47.230;39.620;2023-06-14T03:31:20;18.70;79.07
75281;HTU21D;63874;47.230;39.620;2023-06-14T03:33:47;18.72;78.96
75281;HTU21D;63874;47.230;39.620;2023-06-14T03:36:14;18.71;78.90
75281;HTU21D;63874;47.230;39.620;2023-06-14T03:38:40;18.71;78.85
75281;HTU21D;63874;47.230;39.620;2023-06-14T03:41:06;18.74;78.70
75281;HTU21D;63874;47.230;39.620;2023-06-14T03:43:32;18.74;78.64
75281;HTU21D;63874;47.230;39.620;2023-06-14T03:45:59;18.73;78.54
75281;HTU21D;63874;47.230;39.620;2023-06-14T03:48:26;18.74;78.45
75281;HTU21D;63874;47.230;39.620;2023-06-14T03:50:52;18.73;78.43
75281;HTU21D;63874;47.230;39.620;2023-06-14T03:53:20;18.73;78.28
75281;HTU21D;63874;47.230;39.620;2023-06-14T03:55:50;18.74;78.30
75281;HTU21D;63874;47.230;39.620;2023-06-14T03:58:20;18.74;78.20
75281;HTU21D;63874;47.230;39.620;2023-06-14T04:00:46;18.77;78.11
75281;HTU21D;63874;47.230;39.620;2023-06-14T04:03:12;18.76;78.09
75281;HTU21D;63874;47.230;39.620;2023-06-14T04:05:39;18.80;78.10
75281;HTU21D;63874;47.230;39.620;2023-06-14T04:08:08;18.82;78.13
75281;HTU21D;63874;47.230;39.620;2023-06-14T04:10:36;18.85;77.84
75281;HTU21D;63874;47.230;39.620;2023-06-14T04:13:02;18.88;77.72
75281;HTU21D;63874;47.230;39.620;2023-06-14T04:15:30;18.89;77.60
75281;HTU21D;63874;47.230;39.620;2023-06-14T04:18:00;18.91;77.56
75281;HTU21D;63874;47.230;39.620;2023-06-14T04:20:26;18.92;77.58
75281;HTU21D;63874;47.230;39.620;2023-06-14T04:22:52;18.93;77.53
75281;HTU21D;63874;47.230;39.620;2023-06-14T04:25:19;18.93;77.56
75281;HTU21D;63874;47.230;39.620;2023-06-14T04:27:47;18.97;77.40
75281;HTU21D;63874;47.230;39.620;2023-06-14T04:30:13;19.00;77.29
75281;HTU21D;63874;47.230;39.620;2023-06-14T04:32:46;19.00;77.27
75281;HTU21D;63874;47.230;39.620;2023-06-14T04:35:12;19.02;77.24
75281;HTU21D;63874;47.230;39.620;2023-06-14T04:37:41;19.09;77.00
75281;HTU21D;63874;47.230;39.620;2023-06-14T04:40:10;19.13;76.85
75281;HTU21D;63874;47.230;39.620;2023-06-14T04:42:37;19.17;76.67
75281;HTU21D;63874;47.230;39.620;2023-06-14T04:45:06;19.21;76.64
75281;HTU21D;63874;47.230;39.620;2023-06-14T04:47:33;19.28;76.53
75281;HTU21D;63874;47.230;39.620;2023-06-14T04:50:00;19.36;76.24
75281;HTU21D;63874;47.230;39.620;2023-06-14T04:52:33;19.42;76.18
75281;HTU21D;63874;47.230;39.620;2023-06-14T04:55:08;19.50;75.78
75281;HTU21D;63874;47.230;39.620;2023-06-14T04:57:34;19.53;75.76
75281;HTU21D;63874;47.230;39.620;2023-06-14T05:00:02;19.54;75.63
75281;HTU21D;63874;47.230;39.620;2023-06-14T05:02:32;19.54;75.53
75281;HTU21D;63874;47.230;39.620;2023-06-14T05:04:59;19.55;75.36
75281;HTU21D;63874;47.230;39.620;2023-06-14T05:07:27;19.55;75.33
75281;HTU21D;63874;47.230;39.620;2023-06-14T05:09:53;19.55;75.22
75281;HTU21D;63874;47.230;39.620;2023-06-14T05:12:20;19.54;75.09
75281;HTU21D;63874;47.230;39.620;2023-06-14T05:14:46;19.51;75.12
75281;HTU21D;63874;47.230;39.620;2023-06-14T05:17:12;19.48;75.38
75281;HTU21D;63874;47.230;39.620;2023-06-14T05:19:38;19.48;75.50
75281;HTU21D;63874;47.230;39.620;2023-06-14T05:22:04;19.48;75.56
75281;HTU21D;63874;47.230;39.620;2023-06-14T05:24:29;19.52;75.57
75281;HTU21D;63874;47.230;39.620;2023-06-14T05:26:56;19.55;75.57
75281;HTU21D;63874;47.230;39.620;2023-06-14T05:29:22;19.58;75.42
75281;HTU21D;63874;47.230;39.620;2023-06-14T05:31:50;19.65;75.27
75281;HTU21D;63874;47.230;39.620;2023-06-14T05:34:16;19.71;75.15
75281;HTU21D;63874;47.230;39.620;2023-06-14T05:36:42;19.81;75.08
75281;HTU21D;63874;47.230;39.620;2023-06-14T05:39:08;19.92;74.80
75281;HTU21D;63874;47.230;39.620;2023-06-14T05:41:34;20.01;74.41
75281;HTU21D;63874;47.230;39.620;2023-06-14T05:44:01;20.05;74.19
75281;HTU21D;63874;47.230;39.620;2023-06-14T05:46:45;20.07;74.06
75281;HTU21D;63874;47.230;39.620;2023-06-14T05:49:20;20.07;73.92
75281;HTU21D;63874;47.230;39.620;2023-06-14T05:51:46;20.12;73.85
75281;HTU21D;63874;47.230;39.620;2023-06-14T05:54:12;20.14;73.69
75281;HTU21D;63874;47.230;39.620;2023-06-14T05:56:46;20.21;73.34
75281;HTU21D;63874;47.230;39.620;2023-06-14T05:59:12;20.24;73.20
75281;HTU21D;63874;47.230;39.620;2023-06-14T06:01:38;20.29;73.13
75281;HTU21D;63874;47.230;39.620;2023-06-14T06:04:06;20.33;73.19
75281;HTU21D;63874;47.230;39.620;2023-06-14T06:06:36;20.44;73.06
75281;HTU21D;63874;47.230;39.620;2023-06-14T06:09:02;20.51;72.77
75281;HTU21D;63874;47.230;39.620;2023-06-14T06:11:28;20.57;72.69
75281;HTU21D;63874;47.230;39.620;2023-06-14T06:13:53;20.64;72.54
75281;HTU21D;63874;47.230;39.620;2023-06-14T06:16:19;20.72;72.43
75281;HTU21D;63874;47.230;39.620;2023-06-14T06:18:45;20.79;72.40
75281;HTU21D;63874;47.230;39.620;2023-06-14T06:21:11;20.91;72.15
75281;HTU21D;63874;47.230;39.620;2023-06-14T06:23:39;21.03;71.82
75281;HTU21D;63874;47.230;39.620;2023-06-14T06:26:05;21.15;71.51
75281;HTU21D;63874;47.230;39.620;2023-06-14T06:28:39;21.32;71.21
75281;HTU21D;63874;47.230;39.620;2023-06-14T06:31:04;21.45;71.19
75281;HTU21D;63874;47.230;39.620;2023-06-14T06:33:30;21.60;70.58
75281;HTU21D;63874;47.230;39.620;2023-06-14T06:35:56;21.66;69.95
75281;HTU21D;63874;47.230;39.620;2023-06-14T06:38:22;21.72;69.59
75281;HTU21D;63874;47.230;39.620;2023-06-14T06:40:48;21.74;69.35
75281;HTU21D;63874;47.230;39.620;2023-06-14T06:43:14;21.72;69.31
75281;HTU21D;63874;47.230;39.620;2023-06-14T06:45:45;21.70;69.28
75281;HTU21D;63874;47.230;39.620;2023-06-14T06:48:16;21.69;69.18
75281;HTU21D;63874;47.230;39.620;2023-06-14T06:50:42;21.70;69.31
75281;HTU21D;63874;47.230;39.620;2023-06-14T06:53:08;21.77;69.45
75281;HTU21D;63874;47.230;39.620;2023-06-14T06:55:34;21.87;69.20
75281;HTU21D;63874;47.230;39.620;2023-06-14T06:57:59;21.94;68.78
75281;HTU21D;63874;47.230;39.620;2023-06-14T07:00:26;21.97;68.75
75281;HTU21D;63874;47.230;39.620;2023-06-14T07:02:52;22.07;68.53
75281;HTU21D;63874;47.230;39.620;2023-06-14T07:05:20;22.16;68.29
75281;HTU21D;63874;47.230;39.620;2023-06-14T07:08:04;22.24;68.13
75281;HTU21D;63874;47.230;39.620;2023-06-14T07:10:30;22.27;68.09
75281;HTU21D;63874;47.230;39.620;2023-06-14T07:12:56;22.36;67.92
75281;HTU21D;63874;47.230;39.620;2023-06-14T07:15:25;22.48;67.80
75281;HTU21D;63874;47.230;39.620;2023-06-14T07:17:51;22.60;67.20
75281;HTU21D;63874;47.230;39.620;2023-06-14T07:20:18;22.66;66.69
75281;HTU21D;63874;47.230;39.620;2023-06-14T07:23:07;22.71;66.41
75281;HTU21D;63874;47.230;39.620;2023-06-14T07:25:32;22.78;66.37
75281;HTU21D;63874;47.230;39.620;2023-06-14T07:27:58;22.87;66.26
75281;HTU21D;63874;47.230;39.620;2023-06-14T07:30:24;22.96;65.78
75281;HTU21D;63874;47.230;39.620;2023-06-14T07:32:55;23.02;65.83
75281;HTU21D;63874;47.230;39.620;2023-06-14T07:35:22;23.15;65.53
75281;HTU21D;63874;47.230;39.620;2023-06-14T07:37:48;23.22;64.78
75281;HTU21D;63874;47.230;39.620;2023-06-14T07:40:15;23.24;64.79
75281;HTU21D;63874;47.230;39.620;2023-06-14T07:42:41;23.28;64.67
75281;HTU21D;63874;47.230;39.620;2023-06-14T07:45:07;23.32;64.46
75281;HTU21D;63874;47.230;39.620;2023-06-14T07:47:33;23.38;64.18
75281;HTU21D;63874;47.230;39.620;2023-06-14T07:50:00;23.42;64.22
75281;HTU21D;63874;47.230;39.620;2023-06-14T07:52:25;23.55;63.96
75281;HTU21D;63874;47.230;39.620;2023-06-14T07:54:51;23.70;63.90
75281;HTU21D;63874;47.230;39.620;2023-06-14T07:57:17;23.82;62.86
75281;HTU21D;63874;47.230;39.620;2023-06-14T07:59:46;23.83;62.47
75281;HTU21D;63874;47.230;39.620;2023-06-14T08:02:11;23.80;62.56
75281;HTU21D;63874;47.230;39.620;2023-06-14T08:04:37;23.83;62.73
75281;HTU21D;63874;47.230;39.620;2023-06-14T08:07:03;23.92;62.70
75281;HTU21D;63874;47.230;39.620;2023-06-14T08:09:29;24.00;62.25
75281;HTU21D;63874;47.230;39.620;2023-06-14T08:11:56;24.10;61.77
75281;HTU21D;63874;47.230;39.620;2023-06-14T08:14:22;24.18;61.16
75281;HTU21D;63874;47.230;39.620;2023-06-14T08:16:48;24.33;60.70
75281;HTU21D;63874;47.230;39.620;2023-06-14T08:19:14;24.45;60.55
75281;HTU21D;63874;47.230;39.620;2023-06-14T08:21:42;24.55;60.66
75281;HTU21D;63874;47.230;39.620;2023-06-14T08:24:11;24.70;60.40
75281;HTU21D;63874;47.230;39.620;2023-06-14T08:26:38;24.87;60.12
75281;HTU21D;63874;47.230;39.620;2023-06-14T08:29:05;25.15;59.60
75281;HTU21D;63874;47.230;39.620;2023-06-14T08:31:33;25.33;58.97
75281;HTU21D;63874;47.230;39.620;2023-06-14T08:33:59;25.49;58.19
75281;HTU21D;63874;47.230;39.620;2023-06-14T08:36:25;25.59;57.75
75281;HTU21D;63874;47.230;39.620;2023-06-14T08:38:50;25.72;57.32
75281;HTU21D;63874;47.230;39.620;2023-06-14T08:41:22;25.80;56.93
75281;HTU21D;63874;47.230;39.620;2023-06-14T08:43:50;25.83;56.21
75281;HTU21D;63874;47.230;39.620;2023-06-14T08:46:18;25.86;55.85
75281;HTU21D;63874;47.230;39.620;2023-06-14T08:48:49;25.84;56.38
75281;HTU21D;63874;47.230;39.620;2023-06-14T08:51:18;25.95;56.17
75281;HTU21D;63874;47.230;39.620;2023-06-14T08:53:45;26.02;55.92
75281;HTU21D;63874;47.230;39.620;2023-06-14T08:56:12;26.08;55.61
75281;HTU21D;63874;47.230;39.620;2023-06-14T08:58:43;26.16;55.87
75281;HTU21D;63874;47.230;39.620;2023-06-14T09:01:11;26.11;55.45
75281;HTU21D;63874;47.230;39.620;2023-06-14T09:03:42;25.93;55.87
75281;HTU21D;63874;47.230;39.620;2023-06-14T09:06:09;25.90;56.14
75281;HTU21D;63874;47.230;39.620;2023-06-14T09:08:43;26.03;56.55
75281;HTU21D;63874;47.230;39.620;2023-06-14T09:11:13;26.36;56.07
75281;HTU21D;63874;47.230;39.620;2023-06-14T09:13:40;26.79;55.06
75281;HTU21D;63874;47.230;39.620;2023-06-14T09:16:07;27.07;52.98
75281;HTU21D;63874;47.230;39.620;2023-06-14T09:18:38;27.26;53.03
75281;HTU21D;63874;47.230;39.620;2023-06-14T09:21:08;27.60;51.84
75281;HTU21D;63874;47.230;39.620;2023-06-14T09:23:38;27.64;51.48
75281;HTU21D;63874;47.230;39.620;2023-06-14T09:26:09;27.73;51.14
75281;HTU21D;63874;47.230;39.620;2023-06-14T09:28:36;28.09;49.68
75281;HTU21D;63874;47.230;39.620;2023-06-14T09:31:02;28.35;48.52
75281;HTU21D;63874;47.230;39.620;2023-06-14T09:33:28;28.69;48.15
75281;HTU21D;63874;47.230;39.620;2023-06-14T09:35:54;30.22;45.95
75281;HTU21D;63874;47.230;39.620;2023-06-14T09:38:20;32.45;42.27
75281;HTU21D;63874;47.230;39.620;2023-06-14T09:40:46;34.66;38.72
75281;HTU21D;63874;47.230;39.620;2023-06-14T09:43:12;36.55;34.89
75281;HTU21D;63874;47.230;39.620;2023-06-14T09:45:39;38.18;32.15
75281;HTU21D;63874;47.230;39.620;2023-06-14T09:48:06;39.21;30.31
75281;HTU21D;63874;47.230;39.620;2023-06-14T09:50:34;39.78;27.90
75281;HTU21D;63874;47.230;39.620;2023-06-14T09:53:07;40.18;27.97
75281;HTU21D;63874;47.230;39.620;2023-06-14T09:55:37;40.88;26.79
75281;HTU21D;63874;47.230;39.620;2023-06-14T09:58:06;41.45;26.16
75281;HTU21D;63874;47.230;39.620;2023-06-14T10:00:36;41.56;24.98
75281;HTU21D;63874;47.230;39.620;2023-06-14T10:03:18;40.87;24.77
75281;HTU21D;63874;47.230;39.620;2023-06-14T10:05:48;40.30;25.43
75281;HTU21D;63874;47.230;39.620;2023-06-14T10:08:18;39.87;25.91
75281;HTU21D;63874;47.230;39.620;2023-06-14T10:10:45;40.04;25.87
75281;HTU21D;63874;47.230;39.620;2023-06-14T10:13:12;40.42;25.51
75281;HTU21D;63874;47.230;39.620;2023-06-14T10:16:08;40.96;25.30
75281;HTU21D;63874;47.230;39.620;2023-06-14T10:24:19;41.03;23.94
75281;HTU21D;63874;47.230;39.620;2023-06-14T10:26:56;40.70;24.35
75281;HTU21D;63874;47.230;39.620;2023-06-14T10:29:23;40.70;24.09
75281;HTU21D;63874;47.230;39.620;2023-06-14T10:31:50;40.93;24.02
75281;HTU21D;63874;47.230;39.620;2023-06-14T10:34:30;41.01;23.62
75281;HTU21D;63874;47.230;39.620;2023-06-14T10:37:04;40.99;23.26
75281;HTU21D;63874;47.230;39.620;2023-06-14T10:39:33;40.52;23.28
75281;HTU21D;63874;47.230;39.620;2023-06-14T10:42:01;40.06;24.27
75281;HTU21D;63874;47.230;39.620;2023-06-14T10:46:58;39.76;25.23
75281;HTU21D;63874;47.230;39.620;2023-06-14T10:49:39;39.52;25.11
75281;HTU21D;63874;47.230;39.620;2023-06-14T10:52:20;38.60;26.42
75281;HTU21D;63874;47.230;39.620;2023-06-14T10:54:59;38.50;27.12
75281;HTU21D;63874;47.230;39.620;2023-06-14T10:57:26;39.05;26.49
75281;HTU21D;63874;47.230;39.620;2023-06-14T10:59:52;39.59;25.33
75281;HTU21D;63874;47.230;39.620;2023-06-14T11:05:25;40.36;24.57
75281;HTU21D;63874;47.230;39.620;2023-06-14T11:10:59;40.31;24.56
75281;HTU21D;63874;47.230;39.620;2023-06-14T11:13:26;40.68;24.50
75281;HTU21D;63874;47.230;39.620;2023-06-14T11:15:52;41.51;23.49
75281;HTU21D;63874;47.230;39.620;2023-06-14T11:18:23;41.94;22.90
75281;HTU21D;63874;47.230;39.620;2023-06-14T11:20:55;42.16;22.63
75281;HTU21D;63874;47.230;39.620;2023-06-14T11:23:21;42.39;22.53
75281;HTU21D;63874;47.230;39.620;2023-06-14T11:25:52;42.60;22.33
75281;HTU21D;63874;47.230;39.620;2023-06-14T11:28:18;42.73;21.76
75281;HTU21D;63874;47.230;39.620;2023-06-14T11:30:48;42.62;21.65
75281;HTU21D;63874;47.230;39.620;2023-06-14T11:33:17;42.39;22.03
75281;HTU21D;63874;47.230;39.620;2023-06-14T11:35:46;42.61;21.79
75281;HTU21D;63874;47.230;39.620;2023-06-14T11:38:13;42.87;21.36
75281;HTU21D;63874;47.230;39.620;2023-06-14T11:40:39;42.77;21.28
75281;HTU21D;63874;47.230;39.620;2023-06-14T11:43:05;42.77;21.37
75281;HTU21D;63874;47.230;39.620;2023-06-14T11:45:31;42.65;21.43
75281;HTU21D;63874;47.230;39.620;2023-06-14T11:47:58;42.60;21.61
75281;HTU21D;63874;47.230;39.620;2023-06-14T11:50:26;42.59;21.57
75281;HTU21D;63874;47.230;39.620;2023-06-14T11:52:56;42.23;21.82
75281;HTU21D;63874;47.230;39.620;2023-06-14T11:55:23;41.93;22.05
75281;HTU21D;63874;47.230;39.620;2023-06-14T11:57:50;41.88;22.31
75281;HTU21D;63874;47.230;39.620;2023-06-14T12:00:16;42.29;22.11
75281;HTU21D;63874;47.230;39.620;2023-06-14T12:02:55;42.72;22.01
75281;HTU21D;63874;47.230;39.620;2023-06-14T12:05:24;42.78;21.89
75281;HTU21D;63874;47.230;39.620;2023-06-14T12:07:58;42.77;21.93
75281;HTU21D;63874;47.230;39.620;2023-06-14T12:10:25;42.24;22.08
75281;HTU21D;63874;47.230;39.620;2023-06-14T12:12:57;41.77;22.86
75281;HTU21D;63874;47.230;39.620;2023-06-14T12:15:24;41.61;23.22
75281;HTU21D;63874;47.230;39.620;2023-06-14T12:17:50;41.29;23.59
75281;HTU21D;63874;47.230;39.620;2023-06-14T12:20:16;40.71;24.50
75281;HTU21D;63874;47.230;39.620;2023-06-14T12:22:52;40.25;25.29
75281;HTU21D;63874;47.230;39.620;2023-06-14T12:25:36;40.09;25.70
75281;HTU21D;63874;47.230;39.620;2023-06-14T12:28:08;40.33;25.66
75281;HTU21D;63874;47.230;39.620;2023-06-14T12:30:37;40.51;25.39
75281;HTU21D;63874;47.230;39.620;2023-06-14T12:33:31;40.86;24.91
75281;HTU21D;63874;47.230;39.620;2023-06-14T12:35:58;40.87;24.61
75281;HTU21D;63874;47.230;39.620;2023-06-14T12:38:24;40.75;24.80
75281;HTU21D;63874;47.230;39.620;2023-06-14T12:40:50;40.23;25.36
75281;HTU21D;63874;47.230;39.620;2023-06-14T12:43:16;40.11;25.16
75281;HTU21D;63874;47.230;39.620;2023-06-14T12:45:42;40.18;25.30
75281;HTU21D;63874;47.230;39.620;2023-06-14T12:48:11;40.18;25.11
75281;HTU21D;63874;47.230;39.620;2023-06-14T12:50:36;39.95;25.29
75281;HTU21D;63874;47.230;39.620;2023-06-14T12:53:02;39.95;25.65
75281;HTU21D;63874;47.230;39.620;2023-06-14T12:55:28;40.02;25.45
75281;HTU21D;63874;47.230;39.620;2023-06-14T12:57:54;39.48;25.94
75281;HTU21D;63874;47.230;39.620;2023-06-14T13:00:20;38.54;27.15
75281;HTU21D;63874;47.230;39.620;2023-06-14T13:02:47;37.33;28.71
75281;HTU21D;63874;47.230;39.620;2023-06-14T13:05:12;36.08;30.50
75281;HTU21D;63874;47.230;39.620;2023-06-14T13:07:38;34.97;32.11
75281;HTU21D;63874;47.230;39.620;2023-06-14T13:10:04;33.97;33.93
75281;HTU21D;63874;47.230;39.620;2023-06-14T13:12:40;33.17;35.56
75281;HTU21D;63874;47.230;39.620;2023-06-14T13:15:09;32.46;36.93
75281;HTU21D;63874;47.230;39.620;2023-06-14T13:17:35;31.86;38.15
75281;HTU21D;63874;47.230;39.620;2023-06-14T13:20:07;31.30;39.38
75281;HTU21D;63874;47.230;39.620;2023-06-14T13:22:36;30.78;40.59
75281;HTU21D;63874;47.230;39.620;2023-06-14T13:25:03;30.38;41.66
75281;HTU21D;63874;47.230;39.620;2023-06-14T13:27:29;30.10;42.39
75281;HTU21D;63874;47.230;39.620;2023-06-14T13:29:55;29.92;42.60
75281;HTU21D;63874;47.230;39.620;2023-06-14T13:32:22;29.81;42.93
75281;HTU21D;63874;47.230;39.620;2023-06-14T13:34:49;29.81;42.92
75281;HTU21D;63874;47.230;39.620;2023-06-14T13:37:15;29.61;43.38
75281;HTU21D;63874;47.230;39.620;2023-06-14T13:39:41;29.37;43.89
75281;HTU21D;63874;47.230;39.620;2023-06-14T13:42:07;29.18;44.29
75281;HTU21D;63874;47.230;39.620;2023-06-14T13:44:33;28.92;45.02
75281;HTU21D;63874;47.230;39.620;2023-06-14T13:47:00;28.72;45.48
75281;HTU21D;63874;47.230;39.620;2023-06-14T13:49:25;28.56;46.15
75281;HTU21D;63874;47.230;39.620;2023-06-14T13:51:51;28.37;46.60
75281;HTU21D;63874;47.230;39.620;2023-06-14T13:54:20;28.15;47.18
75281;HTU21D;63874;47.230;39.620;2023-06-14T13:56:47;27.95;47.58
75281;HTU21D;63874;47.230;39.620;2023-06-14T13:59:13;27.78;47.93
75281;HTU21D;63874;47.230;39.620;2023-06-14T14:01:39;27.63;48.36
75281;HTU21D;63874;47.230;39.620;2023-06-14T14:04:05;27.50;48.81
75281;HTU21D;63874;47.230;39.620;2023-06-14T14:06:31;27.39;49.20
75281;HTU21D;63874;47.230;39.620;2023-06-14T14:08:57;27.28;49.69
75281;HTU21D;63874;47.230;39.620;2023-06-14T14:11:23;27.17;50.27
75281;HTU21D;63874;47.230;39.620;2023-06-14T14:13:49;27.08;50.79
75281;HTU21D;63874;47.230;39.620;2023-06-14T14:16:15;26.98;50.99
75281;HTU21D;63874;47.230;39.620;2023-06-14T14:18:41;26.91;51.26
75281;HTU21D;63874;47.230;39.620;2023-06-14T14:21:07;26.83;51.53
75281;HTU21D;63874;47.230;39.620;2023-06-14T14:23:33;26.77;51.95
75281;HTU21D;63874;47.230;39.620;2023-06-14T14:25:59;26.75;52.27
75281;HTU21D;63874;47.230;39.620;2023-06-14T14:28:29;26.75;52.89
75281;HTU21D;63874;47.230;39.620;2023-06-14T14:30:54;26.72;53.01
75281;HTU21D;63874;47.230;39.620;2023-06-14T14:33:22;26.71;53.14
75281;HTU21D;63874;47.230;39.620;2023-06-14T14:35:49;26.69;53.21
75281;HTU21D;63874;47.230;39.620;2023-06-14T14:38:15;26.66;53.53
75281;HTU21D;63874;47.230;39.620;2023-06-14T14:40:43;26.60;53.68
75281;HTU21D;63874;47.230;39.620;2023-06-14T14:43:09;26.57;54.11
75281;HTU21D;63874;47.230;39.620;2023-06-14T14:45:36;26.56;54.06
75281;HTU21D;63874;47.230;39.620;2023-06-14T14:48:03;26.50;54.33
75281;HTU21D;63874;47.230;39.620;2023-06-14T14:50:29;26.45;54.47
75281;HTU21D;63874;47.230;39.620;2023-06-14T14:52:55;26.38;54.84
75281;HTU21D;63874;47.230;39.620;2023-06-14T14:55:21;26.30;55.11
75281;HTU21D;63874;47.230;39.620;2023-06-14T14:57:49;26.26;55.29
75281;HTU21D;63874;47.230;39.620;2023-06-14T15:00:16;26.22;55.50
75281;HTU21D;63874;47.230;39.620;2023-06-14T15:02:42;26.22;55.75
75281;HTU21D;63874;47.230;39.620;2023-06-14T15:05:08;26.24;55.70
75281;HTU21D;63874;47.230;39.620;2023-06-14T15:07:34;26.24;55.81
75281;HTU21D;63874;47.230;39.620;2023-06-14T15:10:00;26.28;55.91
75281;HTU21D;63874;47.230;39.620;2023-06-14T15:12:26;26.30;55.99
75281;HTU21D;63874;47.230;39.620;2023-06-14T15:14:52;26.31;55.85
75281;HTU21D;63874;47.230;39.620;2023-06-14T15:17:19;26.33;55.92
75281;HTU21D;63874;47.230;39.620;2023-06-14T15:19:46;26.37;55.86
75281;HTU21D;63874;47.230;39.620;2023-06-14T15:22:13;26.37;55.78
75281;HTU21D;63874;47.230;39.620;2023-06-14T15:24:44;26.33;55.79
75281;HTU21D;63874;47.230;39.620;2023-06-14T15:27:11;26.26;56.02